<?xml version="1.0" encoding="UTF-8" standalone="no" ?>
<gpx xmlns="http://www.topografix.com/GPX/1/1" xmlns:xsi="http://www.w3.org/2001/XMLSchema-instance" xsi:schemaLocation="http://www.topografix.com/GPX/1/1 http://www.topografix.com/GPX/1/1/gpx.xsd" version="1.1" creator="VisuGPX - https://www.visugpx.com">
  <metadata>
    <name>Gérardmer - Xette (goutte Longelot)</name>
    <desc><![CDATA[Carte 3618 OT Le Honeck - Gérardmer
1h30]]></desc>
  </metadata>
  <trk>
    <name><![CDATA[Gérardmer Xette]]></name>
    <desc><![CDATA[Carte 3618 OT Le Honeck - Gérardmer
1h30]]></desc>
    <trkseg>
      <trkpt lat="48.08398" lon="6.87748">
        <ele>752.71</ele>
        <time>2014-01-13T10:55:03Z</time>
      </trkpt>
      <trkpt lat="48.08398" lon="6.87747">
        <ele>752.71</ele>
        <time>2014-01-13T10:55:04Z</time>
      </trkpt>
      <trkpt lat="48.084" lon="6.87761">
        <ele>752.86</ele>
        <time>2014-01-13T10:55:19Z</time>
      </trkpt>
      <trkpt lat="48.08405" lon="6.87773">
        <ele>752.63</ele>
        <time>2014-01-13T10:55:29Z</time>
      </trkpt>
      <trkpt lat="48.08409" lon="6.87797">
        <ele>752.67</ele>
        <time>2014-01-13T10:55:46Z</time>
      </trkpt>
      <trkpt lat="48.08414" lon="6.87815">
        <ele>752.1</ele>
        <time>2014-01-13T10:55:59Z</time>
      </trkpt>
      <trkpt lat="48.08415" lon="6.87818">
        <ele>751.86</ele>
        <time>2014-01-13T10:56:01Z</time>
      </trkpt>
      <trkpt lat="48.08416" lon="6.8782">
        <ele>751.33</ele>
        <time>2014-01-13T10:56:03Z</time>
      </trkpt>
      <trkpt lat="48.08418" lon="6.87828">
        <ele>750.64</ele>
        <time>2014-01-13T10:56:10Z</time>
      </trkpt>
      <trkpt lat="48.08423" lon="6.87842">
        <ele>749.92</ele>
        <time>2014-01-13T10:56:21Z</time>
      </trkpt>
      <trkpt lat="48.08429" lon="6.87868">
        <ele>748.63</ele>
        <time>2014-01-13T10:56:37Z</time>
      </trkpt>
      <trkpt lat="48.08441" lon="6.87894">
        <ele>747.01</ele>
        <time>2014-01-13T10:56:53Z</time>
      </trkpt>
      <trkpt lat="48.08454" lon="6.87914">
        <ele>744.98</ele>
        <time>2014-01-13T10:57:09Z</time>
      </trkpt>
      <trkpt lat="48.08465" lon="6.8793">
        <ele>743.22</ele>
        <time>2014-01-13T10:57:21Z</time>
      </trkpt>
      <trkpt lat="48.08473" lon="6.87939">
        <ele>742.55</ele>
        <time>2014-01-13T10:57:27Z</time>
      </trkpt>
      <trkpt lat="48.08493" lon="6.87961">
        <ele>740.54</ele>
        <time>2014-01-13T10:57:43Z</time>
      </trkpt>
      <trkpt lat="48.08514" lon="6.87977">
        <ele>738.3</ele>
        <time>2014-01-13T10:57:59Z</time>
      </trkpt>
      <trkpt lat="48.08533" lon="6.87985">
        <ele>736.72</ele>
        <time>2014-01-13T10:58:14Z</time>
      </trkpt>
      <trkpt lat="48.08556" lon="6.87993">
        <ele>734.88</ele>
        <time>2014-01-13T10:58:32Z</time>
      </trkpt>
      <trkpt lat="48.08577" lon="6.87998">
        <ele>733.7</ele>
        <time>2014-01-13T10:58:47Z</time>
      </trkpt>
      <trkpt lat="48.08599" lon="6.88005">
        <ele>732.39</ele>
        <time>2014-01-13T10:59:03Z</time>
      </trkpt>
      <trkpt lat="48.08623" lon="6.8801">
        <ele>732.59</ele>
        <time>2014-01-13T10:59:18Z</time>
      </trkpt>
      <trkpt lat="48.0865" lon="6.88013">
        <ele>735.29</ele>
        <time>2014-01-13T10:59:37Z</time>
      </trkpt>
      <trkpt lat="48.08672" lon="6.88016">
        <ele>737.82</ele>
        <time>2014-01-13T10:59:54Z</time>
      </trkpt>
      <trkpt lat="48.08682" lon="6.88018">
        <ele>739.51</ele>
        <time>2014-01-13T11:00:04Z</time>
      </trkpt>
      <trkpt lat="48.08699" lon="6.88033">
        <ele>742.75</ele>
        <time>2014-01-13T11:00:18Z</time>
      </trkpt>
      <trkpt lat="48.08719" lon="6.88044">
        <ele>745.8</ele>
        <time>2014-01-13T11:00:33Z</time>
      </trkpt>
      <trkpt lat="48.08736" lon="6.88055">
        <ele>748.83</ele>
        <time>2014-01-13T11:00:47Z</time>
      </trkpt>
      <trkpt lat="48.08753" lon="6.88063">
        <ele>751.85</ele>
        <time>2014-01-13T11:01:01Z</time>
      </trkpt>
      <trkpt lat="48.0876" lon="6.88069">
        <ele>754.57</ele>
        <time>2014-01-13T11:01:18Z</time>
      </trkpt>
      <trkpt lat="48.08763" lon="6.88071">
        <ele>755.83</ele>
        <time>2014-01-13T11:01:37Z</time>
      </trkpt>
      <trkpt lat="48.08766" lon="6.88073">
        <ele>755.71</ele>
        <time>2014-01-13T11:01:44Z</time>
      </trkpt>
      <trkpt lat="48.08769" lon="6.88075">
        <ele>755.83</ele>
        <time>2014-01-13T11:01:47Z</time>
      </trkpt>
      <trkpt lat="48.08778" lon="6.88079">
        <ele>757.12</ele>
        <time>2014-01-13T11:01:56Z</time>
      </trkpt>
      <trkpt lat="48.08779" lon="6.88086">
        <ele>758.74</ele>
        <time>2014-01-13T11:02:13Z</time>
      </trkpt>
      <trkpt lat="48.0878" lon="6.88087">
        <ele>758.55</ele>
        <time>2014-01-13T11:02:40Z</time>
      </trkpt>
      <trkpt lat="48.08781" lon="6.88087">
        <ele>758.5</ele>
        <time>2014-01-13T11:02:42Z</time>
      </trkpt>
      <trkpt lat="48.08786" lon="6.88089">
        <ele>758.65</ele>
        <time>2014-01-13T11:02:46Z</time>
      </trkpt>
      <trkpt lat="48.08805" lon="6.88096">
        <ele>761.31</ele>
        <time>2014-01-13T11:03:02Z</time>
      </trkpt>
      <trkpt lat="48.08822" lon="6.88103">
        <ele>764.17</ele>
        <time>2014-01-13T11:03:17Z</time>
      </trkpt>
      <trkpt lat="48.0884" lon="6.88109">
        <ele>767.37</ele>
        <time>2014-01-13T11:03:35Z</time>
      </trkpt>
      <trkpt lat="48.08845" lon="6.88108">
        <ele>768.86</ele>
        <time>2014-01-13T11:03:42Z</time>
      </trkpt>
      <trkpt lat="48.08846" lon="6.88103">
        <ele>769.6</ele>
        <time>2014-01-13T11:03:46Z</time>
      </trkpt>
      <trkpt lat="48.08846" lon="6.88092">
        <ele>770.66</ele>
        <time>2014-01-13T11:03:55Z</time>
      </trkpt>
      <trkpt lat="48.08843" lon="6.88078">
        <ele>773.38</ele>
        <time>2014-01-13T11:04:12Z</time>
      </trkpt>
      <trkpt lat="48.08845" lon="6.88064">
        <ele>775.08</ele>
        <time>2014-01-13T11:04:32Z</time>
      </trkpt>
      <trkpt lat="48.08846" lon="6.88036">
        <ele>778.13</ele>
        <time>2014-01-13T11:04:56Z</time>
      </trkpt>
      <trkpt lat="48.08851" lon="6.88013">
        <ele>780.69</ele>
        <time>2014-01-13T11:05:15Z</time>
      </trkpt>
      <trkpt lat="48.08852" lon="6.87999">
        <ele>782.16</ele>
        <time>2014-01-13T11:05:37Z</time>
      </trkpt>
      <trkpt lat="48.08858" lon="6.87984">
        <ele>783.78</ele>
        <time>2014-01-13T11:06:02Z</time>
      </trkpt>
      <trkpt lat="48.08864" lon="6.87961">
        <ele>786.89</ele>
        <time>2014-01-13T11:06:16Z</time>
      </trkpt>
      <trkpt lat="48.08866" lon="6.87955">
        <ele>787.35</ele>
        <time>2014-01-13T11:06:19Z</time>
      </trkpt>
      <trkpt lat="48.08872" lon="6.87931">
        <ele>790.55</ele>
        <time>2014-01-13T11:06:35Z</time>
      </trkpt>
      <trkpt lat="48.08878" lon="6.87907">
        <ele>793.56</ele>
        <time>2014-01-13T11:06:53Z</time>
      </trkpt>
      <trkpt lat="48.08882" lon="6.87887">
        <ele>796.71</ele>
        <time>2014-01-13T11:07:10Z</time>
      </trkpt>
      <trkpt lat="48.08883" lon="6.87881">
        <ele>797.34</ele>
        <time>2014-01-13T11:07:37Z</time>
      </trkpt>
      <trkpt lat="48.08885" lon="6.8788">
        <ele>797.49</ele>
        <time>2014-01-13T11:08:10Z</time>
      </trkpt>
      <trkpt lat="48.08886" lon="6.87878">
        <ele>797.45</ele>
        <time>2014-01-13T11:08:18Z</time>
      </trkpt>
      <trkpt lat="48.08881" lon="6.87872">
        <ele>797.5</ele>
        <time>2014-01-13T11:08:46Z</time>
      </trkpt>
      <trkpt lat="48.08884" lon="6.87876">
        <ele>797.86</ele>
        <time>2014-01-13T11:09:16Z</time>
      </trkpt>
      <trkpt lat="48.08884" lon="6.87881">
        <ele>798.11</ele>
        <time>2014-01-13T11:09:48Z</time>
      </trkpt>
      <trkpt lat="48.08881" lon="6.87864">
        <ele>798.74</ele>
        <time>2014-01-13T11:10:12Z</time>
      </trkpt>
      <trkpt lat="48.08884" lon="6.87847">
        <ele>800.13</ele>
        <time>2014-01-13T11:10:27Z</time>
      </trkpt>
      <trkpt lat="48.08884" lon="6.87834">
        <ele>801.1</ele>
        <time>2014-01-13T11:10:34Z</time>
      </trkpt>
      <trkpt lat="48.08885" lon="6.8783">
        <ele>801.42</ele>
        <time>2014-01-13T11:10:36Z</time>
      </trkpt>
      <trkpt lat="48.08885" lon="6.87822">
        <ele>802.35</ele>
        <time>2014-01-13T11:10:41Z</time>
      </trkpt>
      <trkpt lat="48.08891" lon="6.87799">
        <ele>805.19</ele>
        <time>2014-01-13T11:10:59Z</time>
      </trkpt>
      <trkpt lat="48.089" lon="6.87772">
        <ele>808.24</ele>
        <time>2014-01-13T11:11:16Z</time>
      </trkpt>
      <trkpt lat="48.08901" lon="6.87745">
        <ele>811.15</ele>
        <time>2014-01-13T11:11:32Z</time>
      </trkpt>
      <trkpt lat="48.08908" lon="6.87729">
        <ele>813.7</ele>
        <time>2014-01-13T11:11:44Z</time>
      </trkpt>
      <trkpt lat="48.08923" lon="6.87733">
        <ele>816.34</ele>
        <time>2014-01-13T11:12:00Z</time>
      </trkpt>
      <trkpt lat="48.08939" lon="6.87744">
        <ele>819.38</ele>
        <time>2014-01-13T11:12:17Z</time>
      </trkpt>
      <trkpt lat="48.08949" lon="6.87758">
        <ele>822.56</ele>
        <time>2014-01-13T11:12:33Z</time>
      </trkpt>
      <trkpt lat="48.08961" lon="6.87777">
        <ele>825.71</ele>
        <time>2014-01-13T11:12:50Z</time>
      </trkpt>
      <trkpt lat="48.08976" lon="6.878">
        <ele>828.5</ele>
        <time>2014-01-13T11:13:09Z</time>
      </trkpt>
      <trkpt lat="48.0898" lon="6.87808">
        <ele>829.65</ele>
        <time>2014-01-13T11:13:15Z</time>
      </trkpt>
      <trkpt lat="48.08994" lon="6.87833">
        <ele>832.18</ele>
        <time>2014-01-13T11:13:36Z</time>
      </trkpt>
      <trkpt lat="48.09" lon="6.87842">
        <ele>832.64</ele>
        <time>2014-01-13T11:13:41Z</time>
      </trkpt>
      <trkpt lat="48.09018" lon="6.87864">
        <ele>835.36</ele>
        <time>2014-01-13T11:14:01Z</time>
      </trkpt>
      <trkpt lat="48.09032" lon="6.87877">
        <ele>837.88</ele>
        <time>2014-01-13T11:14:19Z</time>
      </trkpt>
      <trkpt lat="48.09034" lon="6.87882">
        <ele>838.35</ele>
        <time>2014-01-13T11:14:23Z</time>
      </trkpt>
      <trkpt lat="48.09045" lon="6.8789">
        <ele>840.44</ele>
        <time>2014-01-13T11:14:37Z</time>
      </trkpt>
      <trkpt lat="48.09059" lon="6.87894">
        <ele>842.43</ele>
        <time>2014-01-13T11:14:52Z</time>
      </trkpt>
      <trkpt lat="48.09074" lon="6.87883">
        <ele>844.11</ele>
        <time>2014-01-13T11:15:07Z</time>
      </trkpt>
      <trkpt lat="48.09093" lon="6.87866">
        <ele>846.56</ele>
        <time>2014-01-13T11:15:25Z</time>
      </trkpt>
      <trkpt lat="48.09096" lon="6.87845">
        <ele>849.05</ele>
        <time>2014-01-13T11:15:42Z</time>
      </trkpt>
      <trkpt lat="48.09094" lon="6.87821">
        <ele>851.65</ele>
        <time>2014-01-13T11:16:02Z</time>
      </trkpt>
      <trkpt lat="48.09095" lon="6.87799">
        <ele>854.16</ele>
        <time>2014-01-13T11:16:20Z</time>
      </trkpt>
      <trkpt lat="48.09094" lon="6.87781">
        <ele>857.24</ele>
        <time>2014-01-13T11:16:39Z</time>
      </trkpt>
      <trkpt lat="48.09094" lon="6.87755">
        <ele>859.41</ele>
        <time>2014-01-13T11:17:00Z</time>
      </trkpt>
      <trkpt lat="48.09097" lon="6.87732">
        <ele>861.72</ele>
        <time>2014-01-13T11:17:21Z</time>
      </trkpt>
      <trkpt lat="48.09089" lon="6.87707">
        <ele>863.71</ele>
        <time>2014-01-13T11:17:39Z</time>
      </trkpt>
      <trkpt lat="48.09081" lon="6.87683">
        <ele>865.06</ele>
        <time>2014-01-13T11:17:57Z</time>
      </trkpt>
      <trkpt lat="48.09076" lon="6.87658">
        <ele>866.46</ele>
        <time>2014-01-13T11:18:17Z</time>
      </trkpt>
      <trkpt lat="48.09075" lon="6.87632">
        <ele>868.22</ele>
        <time>2014-01-13T11:18:37Z</time>
      </trkpt>
      <trkpt lat="48.09071" lon="6.87603">
        <ele>870.54</ele>
        <time>2014-01-13T11:18:57Z</time>
      </trkpt>
      <trkpt lat="48.09068" lon="6.8757">
        <ele>872.2</ele>
        <time>2014-01-13T11:19:17Z</time>
      </trkpt>
      <trkpt lat="48.09065" lon="6.87538">
        <ele>873.27</ele>
        <time>2014-01-13T11:19:37Z</time>
      </trkpt>
      <trkpt lat="48.09067" lon="6.87522">
        <ele>874.08</ele>
        <time>2014-01-13T11:19:47Z</time>
      </trkpt>
      <trkpt lat="48.09068" lon="6.87492">
        <ele>874.34</ele>
        <time>2014-01-13T11:20:04Z</time>
      </trkpt>
      <trkpt lat="48.09068" lon="6.87458">
        <ele>875.12</ele>
        <time>2014-01-13T11:20:23Z</time>
      </trkpt>
      <trkpt lat="48.09071" lon="6.87449">
        <ele>875.54</ele>
        <time>2014-01-13T11:20:29Z</time>
      </trkpt>
      <trkpt lat="48.0907" lon="6.87422">
        <ele>876.91</ele>
        <time>2014-01-13T11:20:48Z</time>
      </trkpt>
      <trkpt lat="48.09069" lon="6.87409">
        <ele>877.44</ele>
        <time>2014-01-13T11:20:56Z</time>
      </trkpt>
      <trkpt lat="48.09068" lon="6.87389">
        <ele>877.75</ele>
        <time>2014-01-13T11:21:10Z</time>
      </trkpt>
      <trkpt lat="48.09066" lon="6.87395">
        <ele>878.26</ele>
        <time>2014-01-13T11:21:31Z</time>
      </trkpt>
      <trkpt lat="48.0906" lon="6.87396">
        <ele>878.26</ele>
        <time>2014-01-13T11:22:06Z</time>
      </trkpt>
      <trkpt lat="48.09064" lon="6.874">
        <ele>878.29</ele>
        <time>2014-01-13T11:22:13Z</time>
      </trkpt>
      <trkpt lat="48.09071" lon="6.87405">
        <ele>878.42</ele>
        <time>2014-01-13T11:22:37Z</time>
      </trkpt>
      <trkpt lat="48.0906" lon="6.8739">
        <ele>878.32</ele>
        <time>2014-01-13T11:23:09Z</time>
      </trkpt>
      <trkpt lat="48.09066" lon="6.87387">
        <ele>878.34</ele>
        <time>2014-01-13T11:23:33Z</time>
      </trkpt>
      <trkpt lat="48.09073" lon="6.87378">
        <ele>878.83</ele>
        <time>2014-01-13T11:23:53Z</time>
      </trkpt>
      <trkpt lat="48.09082" lon="6.87366">
        <ele>878.37</ele>
        <time>2014-01-13T11:24:13Z</time>
      </trkpt>
      <trkpt lat="48.09098" lon="6.87345">
        <ele>878.33</ele>
        <time>2014-01-13T11:24:32Z</time>
      </trkpt>
      <trkpt lat="48.09117" lon="6.87326">
        <ele>877.84</ele>
        <time>2014-01-13T11:24:53Z</time>
      </trkpt>
      <trkpt lat="48.09125" lon="6.87318">
        <ele>877.63</ele>
        <time>2014-01-13T11:25:00Z</time>
      </trkpt>
      <trkpt lat="48.09135" lon="6.87301">
        <ele>877.62</ele>
        <time>2014-01-13T11:25:16Z</time>
      </trkpt>
      <trkpt lat="48.09148" lon="6.8728">
        <ele>877.87</ele>
        <time>2014-01-13T11:25:29Z</time>
      </trkpt>
      <trkpt lat="48.09158" lon="6.87256">
        <ele>878.53</ele>
        <time>2014-01-13T11:25:41Z</time>
      </trkpt>
      <trkpt lat="48.09163" lon="6.87248">
        <ele>878.83</ele>
        <time>2014-01-13T11:25:46Z</time>
      </trkpt>
      <trkpt lat="48.09167" lon="6.87237">
        <ele>879.07</ele>
        <time>2014-01-13T11:25:52Z</time>
      </trkpt>
      <trkpt lat="48.09171" lon="6.87212">
        <ele>879.94</ele>
        <time>2014-01-13T11:26:07Z</time>
      </trkpt>
      <trkpt lat="48.09183" lon="6.87169">
        <ele>880.65</ele>
        <time>2014-01-13T11:26:28Z</time>
      </trkpt>
      <trkpt lat="48.09191" lon="6.87135">
        <ele>882.09</ele>
        <time>2014-01-13T11:26:48Z</time>
      </trkpt>
      <trkpt lat="48.09208" lon="6.87114">
        <ele>884.32</ele>
        <time>2014-01-13T11:27:06Z</time>
      </trkpt>
      <trkpt lat="48.09212" lon="6.87113">
        <ele>884.58</ele>
        <time>2014-01-13T11:27:09Z</time>
      </trkpt>
      <trkpt lat="48.09229" lon="6.87102">
        <ele>885.92</ele>
        <time>2014-01-13T11:27:29Z</time>
      </trkpt>
      <trkpt lat="48.09239" lon="6.87094">
        <ele>886.41</ele>
        <time>2014-01-13T11:27:39Z</time>
      </trkpt>
      <trkpt lat="48.09256" lon="6.87079">
        <ele>886.69</ele>
        <time>2014-01-13T11:27:55Z</time>
      </trkpt>
      <trkpt lat="48.09275" lon="6.87075">
        <ele>887.18</ele>
        <time>2014-01-13T11:28:12Z</time>
      </trkpt>
      <trkpt lat="48.09298" lon="6.87075">
        <ele>888.8</ele>
        <time>2014-01-13T11:28:34Z</time>
      </trkpt>
      <trkpt lat="48.09324" lon="6.87069">
        <ele>888.77</ele>
        <time>2014-01-13T11:28:53Z</time>
      </trkpt>
      <trkpt lat="48.09348" lon="6.87062">
        <ele>888.43</ele>
        <time>2014-01-13T11:29:12Z</time>
      </trkpt>
      <trkpt lat="48.09381" lon="6.87044">
        <ele>889.01</ele>
        <time>2014-01-13T11:29:34Z</time>
      </trkpt>
      <trkpt lat="48.09399" lon="6.87034">
        <ele>890.15</ele>
        <time>2014-01-13T11:29:53Z</time>
      </trkpt>
      <trkpt lat="48.09408" lon="6.87026">
        <ele>890.51</ele>
        <time>2014-01-13T11:30:00Z</time>
      </trkpt>
      <trkpt lat="48.09423" lon="6.87005">
        <ele>891.75</ele>
        <time>2014-01-13T11:30:15Z</time>
      </trkpt>
      <trkpt lat="48.09425" lon="6.86997">
        <ele>891.9</ele>
        <time>2014-01-13T11:30:19Z</time>
      </trkpt>
      <trkpt lat="48.09428" lon="6.86987">
        <ele>891.88</ele>
        <time>2014-01-13T11:30:25Z</time>
      </trkpt>
      <trkpt lat="48.09432" lon="6.86978">
        <ele>891.82</ele>
        <time>2014-01-13T11:30:31Z</time>
      </trkpt>
      <trkpt lat="48.09435" lon="6.86954">
        <ele>892.13</ele>
        <time>2014-01-13T11:30:43Z</time>
      </trkpt>
      <trkpt lat="48.09438" lon="6.86928">
        <ele>892.56</ele>
        <time>2014-01-13T11:30:56Z</time>
      </trkpt>
      <trkpt lat="48.09444" lon="6.86906">
        <ele>893.13</ele>
        <time>2014-01-13T11:31:09Z</time>
      </trkpt>
      <trkpt lat="48.09452" lon="6.86873">
        <ele>894.4</ele>
        <time>2014-01-13T11:31:29Z</time>
      </trkpt>
      <trkpt lat="48.09453" lon="6.8684">
        <ele>894.19</ele>
        <time>2014-01-13T11:31:45Z</time>
      </trkpt>
      <trkpt lat="48.09454" lon="6.86829">
        <ele>894</ele>
        <time>2014-01-13T11:31:51Z</time>
      </trkpt>
      <trkpt lat="48.09458" lon="6.86803">
        <ele>893.75</ele>
        <time>2014-01-13T11:32:05Z</time>
      </trkpt>
      <trkpt lat="48.09459" lon="6.86792">
        <ele>893.71</ele>
        <time>2014-01-13T11:32:11Z</time>
      </trkpt>
      <trkpt lat="48.09462" lon="6.86784">
        <ele>893.65</ele>
        <time>2014-01-13T11:32:16Z</time>
      </trkpt>
      <trkpt lat="48.09471" lon="6.86761">
        <ele>894.01</ele>
        <time>2014-01-13T11:32:30Z</time>
      </trkpt>
      <trkpt lat="48.09489" lon="6.86728">
        <ele>895.27</ele>
        <time>2014-01-13T11:32:51Z</time>
      </trkpt>
      <trkpt lat="48.09502" lon="6.86695">
        <ele>896.42</ele>
        <time>2014-01-13T11:33:11Z</time>
      </trkpt>
      <trkpt lat="48.0951" lon="6.86665">
        <ele>897.49</ele>
        <time>2014-01-13T11:33:29Z</time>
      </trkpt>
      <trkpt lat="48.09525" lon="6.86644">
        <ele>899.22</ele>
        <time>2014-01-13T11:33:49Z</time>
      </trkpt>
      <trkpt lat="48.09537" lon="6.86623">
        <ele>902.01</ele>
        <time>2014-01-13T11:34:08Z</time>
      </trkpt>
      <trkpt lat="48.09551" lon="6.86591">
        <ele>904.09</ele>
        <time>2014-01-13T11:34:27Z</time>
      </trkpt>
      <trkpt lat="48.09554" lon="6.86566">
        <ele>906.44</ele>
        <time>2014-01-13T11:34:44Z</time>
      </trkpt>
      <trkpt lat="48.09551" lon="6.86544">
        <ele>908.15</ele>
        <time>2014-01-13T11:35:00Z</time>
      </trkpt>
      <trkpt lat="48.09544" lon="6.86523">
        <ele>908.91</ele>
        <time>2014-01-13T11:35:16Z</time>
      </trkpt>
      <trkpt lat="48.09542" lon="6.86518">
        <ele>909.32</ele>
        <time>2014-01-13T11:35:21Z</time>
      </trkpt>
      <trkpt lat="48.09541" lon="6.86513">
        <ele>909.39</ele>
        <time>2014-01-13T11:35:24Z</time>
      </trkpt>
      <trkpt lat="48.09535" lon="6.86486">
        <ele>910.15</ele>
        <time>2014-01-13T11:35:41Z</time>
      </trkpt>
      <trkpt lat="48.09529" lon="6.86471">
        <ele>910.43</ele>
        <time>2014-01-13T11:35:52Z</time>
      </trkpt>
      <trkpt lat="48.09512" lon="6.86459">
        <ele>910.98</ele>
        <time>2014-01-13T11:36:09Z</time>
      </trkpt>
      <trkpt lat="48.09508" lon="6.86461">
        <ele>910.97</ele>
        <time>2014-01-13T11:36:16Z</time>
      </trkpt>
      <trkpt lat="48.09494" lon="6.86444">
        <ele>910.33</ele>
        <time>2014-01-13T11:36:31Z</time>
      </trkpt>
      <trkpt lat="48.09487" lon="6.86435">
        <ele>910.14</ele>
        <time>2014-01-13T11:36:39Z</time>
      </trkpt>
      <trkpt lat="48.09482" lon="6.86433">
        <ele>910.05</ele>
        <time>2014-01-13T11:36:43Z</time>
      </trkpt>
      <trkpt lat="48.09474" lon="6.86422">
        <ele>909.66</ele>
        <time>2014-01-13T11:36:51Z</time>
      </trkpt>
      <trkpt lat="48.09459" lon="6.8641">
        <ele>909.07</ele>
        <time>2014-01-13T11:37:06Z</time>
      </trkpt>
      <trkpt lat="48.09439" lon="6.86394">
        <ele>908.48</ele>
        <time>2014-01-13T11:37:26Z</time>
      </trkpt>
      <trkpt lat="48.09423" lon="6.86381">
        <ele>907.84</ele>
        <time>2014-01-13T11:37:41Z</time>
      </trkpt>
      <trkpt lat="48.09404" lon="6.86368">
        <ele>907.42</ele>
        <time>2014-01-13T11:37:58Z</time>
      </trkpt>
      <trkpt lat="48.09384" lon="6.86353">
        <ele>906.79</ele>
        <time>2014-01-13T11:38:16Z</time>
      </trkpt>
      <trkpt lat="48.09366" lon="6.8634">
        <ele>906.33</ele>
        <time>2014-01-13T11:38:32Z</time>
      </trkpt>
      <trkpt lat="48.09361" lon="6.86338">
        <ele>906.19</ele>
        <time>2014-01-13T11:38:37Z</time>
      </trkpt>
      <trkpt lat="48.09354" lon="6.86332">
        <ele>906.11</ele>
        <time>2014-01-13T11:38:44Z</time>
      </trkpt>
      <trkpt lat="48.09349" lon="6.86329">
        <ele>906.28</ele>
        <time>2014-01-13T11:38:58Z</time>
      </trkpt>
      <trkpt lat="48.09347" lon="6.86329">
        <ele>906.34</ele>
        <time>2014-01-13T11:39:00Z</time>
      </trkpt>
      <trkpt lat="48.09336" lon="6.86325">
        <ele>906.53</ele>
        <time>2014-01-13T11:39:16Z</time>
      </trkpt>
      <trkpt lat="48.09318" lon="6.86323">
        <ele>906.47</ele>
        <time>2014-01-13T11:39:37Z</time>
      </trkpt>
      <trkpt lat="48.0932" lon="6.86324">
        <ele>906.49</ele>
        <time>2014-01-13T11:40:07Z</time>
      </trkpt>
      <trkpt lat="48.09318" lon="6.86331">
        <ele>906.76</ele>
        <time>2014-01-13T11:40:32Z</time>
      </trkpt>
      <trkpt lat="48.09313" lon="6.86326">
        <ele>906.44</ele>
        <time>2014-01-13T11:40:58Z</time>
      </trkpt>
      <trkpt lat="48.09302" lon="6.8632">
        <ele>906.61</ele>
        <time>2014-01-13T11:41:10Z</time>
      </trkpt>
      <trkpt lat="48.09296" lon="6.86316">
        <ele>906.54</ele>
        <time>2014-01-13T11:41:15Z</time>
      </trkpt>
      <trkpt lat="48.09274" lon="6.86308">
        <ele>906.57</ele>
        <time>2014-01-13T11:41:34Z</time>
      </trkpt>
      <trkpt lat="48.0926" lon="6.863">
        <ele>906.19</ele>
        <time>2014-01-13T11:41:46Z</time>
      </trkpt>
      <trkpt lat="48.09246" lon="6.86287">
        <ele>904.24</ele>
        <time>2014-01-13T11:42:01Z</time>
      </trkpt>
      <trkpt lat="48.09238" lon="6.86282">
        <ele>903.49</ele>
        <time>2014-01-13T11:42:07Z</time>
      </trkpt>
      <trkpt lat="48.09228" lon="6.86278">
        <ele>902.88</ele>
        <time>2014-01-13T11:42:15Z</time>
      </trkpt>
      <trkpt lat="48.09209" lon="6.8627">
        <ele>902.77</ele>
        <time>2014-01-13T11:42:31Z</time>
      </trkpt>
      <trkpt lat="48.09208" lon="6.8627">
        <ele>902.75</ele>
        <time>2014-01-13T11:42:32Z</time>
      </trkpt>
      <trkpt lat="48.09193" lon="6.86271">
        <ele>902.71</ele>
        <time>2014-01-13T11:42:46Z</time>
      </trkpt>
      <trkpt lat="48.0917" lon="6.86267">
        <ele>903.48</ele>
        <time>2014-01-13T11:43:02Z</time>
      </trkpt>
      <trkpt lat="48.09153" lon="6.86268">
        <ele>904.37</ele>
        <time>2014-01-13T11:43:19Z</time>
      </trkpt>
      <trkpt lat="48.09132" lon="6.86266">
        <ele>907.46</ele>
        <time>2014-01-13T11:43:41Z</time>
      </trkpt>
      <trkpt lat="48.09112" lon="6.86267">
        <ele>910.5</ele>
        <time>2014-01-13T11:44:03Z</time>
      </trkpt>
      <trkpt lat="48.09094" lon="6.86266">
        <ele>912.34</ele>
        <time>2014-01-13T11:44:22Z</time>
      </trkpt>
      <trkpt lat="48.0907" lon="6.86263">
        <ele>913.88</ele>
        <time>2014-01-13T11:44:43Z</time>
      </trkpt>
      <trkpt lat="48.09052" lon="6.86263">
        <ele>915.74</ele>
        <time>2014-01-13T11:45:01Z</time>
      </trkpt>
      <trkpt lat="48.09031" lon="6.86261">
        <ele>917.95</ele>
        <time>2014-01-13T11:45:21Z</time>
      </trkpt>
      <trkpt lat="48.0901" lon="6.8626">
        <ele>920.37</ele>
        <time>2014-01-13T11:45:42Z</time>
      </trkpt>
      <trkpt lat="48.0898" lon="6.86263">
        <ele>922.6</ele>
        <time>2014-01-13T11:46:06Z</time>
      </trkpt>
      <trkpt lat="48.08965" lon="6.86257">
        <ele>923.45</ele>
        <time>2014-01-13T11:46:21Z</time>
      </trkpt>
      <trkpt lat="48.0895" lon="6.86258">
        <ele>923.79</ele>
        <time>2014-01-13T11:46:37Z</time>
      </trkpt>
      <trkpt lat="48.0894" lon="6.8626">
        <ele>924.66</ele>
        <time>2014-01-13T11:47:01Z</time>
      </trkpt>
      <trkpt lat="48.0894" lon="6.86262">
        <ele>924.8</ele>
        <time>2014-01-13T11:47:14Z</time>
      </trkpt>
      <trkpt lat="48.08941" lon="6.86268">
        <ele>924.87</ele>
        <time>2014-01-13T11:47:26Z</time>
      </trkpt>
      <trkpt lat="48.08939" lon="6.86267">
        <ele>925.03</ele>
        <time>2014-01-13T11:47:52Z</time>
      </trkpt>
      <trkpt lat="48.08916" lon="6.86272">
        <ele>926.29</ele>
        <time>2014-01-13T11:48:12Z</time>
      </trkpt>
      <trkpt lat="48.08895" lon="6.86274">
        <ele>927</ele>
        <time>2014-01-13T11:48:29Z</time>
      </trkpt>
      <trkpt lat="48.08866" lon="6.86278">
        <ele>927.86</ele>
        <time>2014-01-13T11:48:47Z</time>
      </trkpt>
      <trkpt lat="48.08845" lon="6.86271">
        <ele>929.02</ele>
        <time>2014-01-13T11:49:03Z</time>
      </trkpt>
      <trkpt lat="48.08829" lon="6.86262">
        <ele>929.62</ele>
        <time>2014-01-13T11:49:16Z</time>
      </trkpt>
      <trkpt lat="48.08814" lon="6.86243">
        <ele>930.55</ele>
        <time>2014-01-13T11:49:37Z</time>
      </trkpt>
      <trkpt lat="48.08797" lon="6.86224">
        <ele>930.38</ele>
        <time>2014-01-13T11:49:58Z</time>
      </trkpt>
      <trkpt lat="48.08776" lon="6.86203">
        <ele>929.69</ele>
        <time>2014-01-13T11:50:19Z</time>
      </trkpt>
      <trkpt lat="48.08751" lon="6.86177">
        <ele>927.76</ele>
        <time>2014-01-13T11:50:45Z</time>
      </trkpt>
      <trkpt lat="48.08738" lon="6.86166">
        <ele>926.56</ele>
        <time>2014-01-13T11:51:01Z</time>
      </trkpt>
      <trkpt lat="48.08725" lon="6.8615">
        <ele>925.97</ele>
        <time>2014-01-13T11:51:21Z</time>
      </trkpt>
      <trkpt lat="48.08716" lon="6.86132">
        <ele>925.11</ele>
        <time>2014-01-13T11:51:41Z</time>
      </trkpt>
      <trkpt lat="48.08701" lon="6.86115">
        <ele>923.63</ele>
        <time>2014-01-13T11:51:59Z</time>
      </trkpt>
      <trkpt lat="48.08684" lon="6.86099">
        <ele>922.41</ele>
        <time>2014-01-13T11:52:21Z</time>
      </trkpt>
      <trkpt lat="48.08675" lon="6.86088">
        <ele>921.81</ele>
        <time>2014-01-13T11:52:43Z</time>
      </trkpt>
      <trkpt lat="48.0867" lon="6.86078">
        <ele>921.5</ele>
        <time>2014-01-13T11:53:07Z</time>
      </trkpt>
      <trkpt lat="48.08667" lon="6.86071">
        <ele>921.33</ele>
        <time>2014-01-13T11:53:31Z</time>
      </trkpt>
      <trkpt lat="48.08667" lon="6.86069">
        <ele>920.93</ele>
        <time>2014-01-13T11:53:58Z</time>
      </trkpt>
      <trkpt lat="48.08648" lon="6.8605">
        <ele>919.53</ele>
        <time>2014-01-13T11:54:19Z</time>
      </trkpt>
      <trkpt lat="48.08632" lon="6.86031">
        <ele>917.53</ele>
        <time>2014-01-13T11:54:38Z</time>
      </trkpt>
      <trkpt lat="48.08623" lon="6.86013">
        <ele>916.21</ele>
        <time>2014-01-13T11:54:53Z</time>
      </trkpt>
      <trkpt lat="48.08611" lon="6.85991">
        <ele>914.4</ele>
        <time>2014-01-13T11:55:08Z</time>
      </trkpt>
      <trkpt lat="48.08596" lon="6.85966">
        <ele>912.42</ele>
        <time>2014-01-13T11:55:29Z</time>
      </trkpt>
      <trkpt lat="48.08595" lon="6.85965">
        <ele>912.27</ele>
        <time>2014-01-13T11:55:30Z</time>
      </trkpt>
      <trkpt lat="48.08583" lon="6.85944">
        <ele>910.65</ele>
        <time>2014-01-13T11:55:46Z</time>
      </trkpt>
      <trkpt lat="48.08578" lon="6.8593">
        <ele>909.82</ele>
        <time>2014-01-13T11:55:55Z</time>
      </trkpt>
      <trkpt lat="48.08576" lon="6.85923">
        <ele>909.44</ele>
        <time>2014-01-13T11:55:59Z</time>
      </trkpt>
      <trkpt lat="48.08568" lon="6.85892">
        <ele>908.05</ele>
        <time>2014-01-13T11:56:18Z</time>
      </trkpt>
      <trkpt lat="48.08567" lon="6.85885">
        <ele>907.91</ele>
        <time>2014-01-13T11:56:22Z</time>
      </trkpt>
      <trkpt lat="48.08564" lon="6.85869">
        <ele>907.2</ele>
        <time>2014-01-13T11:56:32Z</time>
      </trkpt>
      <trkpt lat="48.08557" lon="6.85836">
        <ele>905.92</ele>
        <time>2014-01-13T11:56:50Z</time>
      </trkpt>
      <trkpt lat="48.08549" lon="6.85803">
        <ele>905.44</ele>
        <time>2014-01-13T11:57:11Z</time>
      </trkpt>
      <trkpt lat="48.08545" lon="6.85771">
        <ele>904.98</ele>
        <time>2014-01-13T11:57:29Z</time>
      </trkpt>
      <trkpt lat="48.08544" lon="6.85753">
        <ele>904.8</ele>
        <time>2014-01-13T11:57:38Z</time>
      </trkpt>
      <trkpt lat="48.08542" lon="6.85732">
        <ele>904.65</ele>
        <time>2014-01-13T11:57:50Z</time>
      </trkpt>
      <trkpt lat="48.08542" lon="6.85727">
        <ele>904.6</ele>
        <time>2014-01-13T11:57:53Z</time>
      </trkpt>
      <trkpt lat="48.0854" lon="6.85717">
        <ele>904.34</ele>
        <time>2014-01-13T11:57:58Z</time>
      </trkpt>
      <trkpt lat="48.08535" lon="6.85685">
        <ele>904.05</ele>
        <time>2014-01-13T11:58:15Z</time>
      </trkpt>
      <trkpt lat="48.08532" lon="6.85661">
        <ele>904.04</ele>
        <time>2014-01-13T11:58:28Z</time>
      </trkpt>
      <trkpt lat="48.08532" lon="6.85657">
        <ele>903.96</ele>
        <time>2014-01-13T11:58:31Z</time>
      </trkpt>
      <trkpt lat="48.08531" lon="6.85649">
        <ele>903.68</ele>
        <time>2014-01-13T11:58:35Z</time>
      </trkpt>
      <trkpt lat="48.08527" lon="6.85628">
        <ele>902.56</ele>
        <time>2014-01-13T11:58:50Z</time>
      </trkpt>
      <trkpt lat="48.08508" lon="6.85611">
        <ele>900.39</ele>
        <time>2014-01-13T11:59:09Z</time>
      </trkpt>
      <trkpt lat="48.08485" lon="6.85601">
        <ele>898.86</ele>
        <time>2014-01-13T11:59:32Z</time>
      </trkpt>
      <trkpt lat="48.08476" lon="6.8559">
        <ele>898.69</ele>
        <time>2014-01-13T11:59:51Z</time>
      </trkpt>
      <trkpt lat="48.08464" lon="6.85574">
        <ele>898.31</ele>
        <time>2014-01-13T12:00:10Z</time>
      </trkpt>
      <trkpt lat="48.08463" lon="6.8557">
        <ele>898.48</ele>
        <time>2014-01-13T12:00:35Z</time>
      </trkpt>
      <trkpt lat="48.0846" lon="6.85574">
        <ele>898.4</ele>
        <time>2014-01-13T12:01:01Z</time>
      </trkpt>
      <trkpt lat="48.08461" lon="6.85577">
        <ele>898.65</ele>
        <time>2014-01-13T12:01:26Z</time>
      </trkpt>
      <trkpt lat="48.08467" lon="6.85584">
        <ele>898.14</ele>
        <time>2014-01-13T12:01:45Z</time>
      </trkpt>
      <trkpt lat="48.08469" lon="6.85591">
        <ele>897.88</ele>
        <time>2014-01-13T12:01:51Z</time>
      </trkpt>
      <trkpt lat="48.08475" lon="6.85618">
        <ele>896.27</ele>
        <time>2014-01-13T12:02:13Z</time>
      </trkpt>
      <trkpt lat="48.08476" lon="6.85649">
        <ele>895.11</ele>
        <time>2014-01-13T12:02:33Z</time>
      </trkpt>
      <trkpt lat="48.08474" lon="6.85664">
        <ele>894.71</ele>
        <time>2014-01-13T12:02:42Z</time>
      </trkpt>
      <trkpt lat="48.0847" lon="6.85697">
        <ele>892.34</ele>
        <time>2014-01-13T12:03:05Z</time>
      </trkpt>
      <trkpt lat="48.08468" lon="6.85726">
        <ele>889.96</ele>
        <time>2014-01-13T12:03:26Z</time>
      </trkpt>
      <trkpt lat="48.08464" lon="6.85756">
        <ele>888.09</ele>
        <time>2014-01-13T12:03:44Z</time>
      </trkpt>
      <trkpt lat="48.08464" lon="6.85785">
        <ele>886.35</ele>
        <time>2014-01-13T12:04:04Z</time>
      </trkpt>
      <trkpt lat="48.08459" lon="6.8582">
        <ele>884.75</ele>
        <time>2014-01-13T12:04:27Z</time>
      </trkpt>
      <trkpt lat="48.08458" lon="6.85842">
        <ele>883.09</ele>
        <time>2014-01-13T12:04:44Z</time>
      </trkpt>
      <trkpt lat="48.08452" lon="6.85877">
        <ele>880.3</ele>
        <time>2014-01-13T12:05:10Z</time>
      </trkpt>
      <trkpt lat="48.08434" lon="6.85907">
        <ele>878.48</ele>
        <time>2014-01-13T12:05:28Z</time>
      </trkpt>
      <trkpt lat="48.08429" lon="6.85917">
        <ele>876.88</ele>
        <time>2014-01-13T12:05:40Z</time>
      </trkpt>
      <trkpt lat="48.0842" lon="6.85931">
        <ele>874.12</ele>
        <time>2014-01-13T12:06:02Z</time>
      </trkpt>
      <trkpt lat="48.08405" lon="6.85948">
        <ele>871.76</ele>
        <time>2014-01-13T12:06:22Z</time>
      </trkpt>
      <trkpt lat="48.08392" lon="6.85967">
        <ele>869.52</ele>
        <time>2014-01-13T12:06:42Z</time>
      </trkpt>
      <trkpt lat="48.08377" lon="6.85991">
        <ele>866.81</ele>
        <time>2014-01-13T12:07:03Z</time>
      </trkpt>
      <trkpt lat="48.08367" lon="6.86011">
        <ele>864.46</ele>
        <time>2014-01-13T12:07:24Z</time>
      </trkpt>
      <trkpt lat="48.08359" lon="6.86031">
        <ele>863.47</ele>
        <time>2014-01-13T12:07:44Z</time>
      </trkpt>
      <trkpt lat="48.08348" lon="6.86052">
        <ele>862.24</ele>
        <time>2014-01-13T12:08:03Z</time>
      </trkpt>
      <trkpt lat="48.08334" lon="6.86064">
        <ele>860.21</ele>
        <time>2014-01-13T12:08:25Z</time>
      </trkpt>
      <trkpt lat="48.08316" lon="6.86089">
        <ele>857.76</ele>
        <time>2014-01-13T12:08:45Z</time>
      </trkpt>
      <trkpt lat="48.08307" lon="6.86101">
        <ele>856.52</ele>
        <time>2014-01-13T12:08:55Z</time>
      </trkpt>
      <trkpt lat="48.08304" lon="6.86102">
        <ele>856.2</ele>
        <time>2014-01-13T12:08:58Z</time>
      </trkpt>
      <trkpt lat="48.0829" lon="6.8612">
        <ele>854.62</ele>
        <time>2014-01-13T12:09:15Z</time>
      </trkpt>
      <trkpt lat="48.08283" lon="6.86137">
        <ele>853.28</ele>
        <time>2014-01-13T12:09:31Z</time>
      </trkpt>
      <trkpt lat="48.08279" lon="6.86154">
        <ele>852.88</ele>
        <time>2014-01-13T12:09:50Z</time>
      </trkpt>
      <trkpt lat="48.08272" lon="6.86175">
        <ele>851.51</ele>
        <time>2014-01-13T12:10:07Z</time>
      </trkpt>
      <trkpt lat="48.08259" lon="6.86193">
        <ele>850.25</ele>
        <time>2014-01-13T12:10:22Z</time>
      </trkpt>
      <trkpt lat="48.08247" lon="6.86208">
        <ele>849.58</ele>
        <time>2014-01-13T12:10:36Z</time>
      </trkpt>
      <trkpt lat="48.08236" lon="6.8622">
        <ele>847.83</ele>
        <time>2014-01-13T12:10:50Z</time>
      </trkpt>
      <trkpt lat="48.0822" lon="6.86235">
        <ele>846.03</ele>
        <time>2014-01-13T12:11:07Z</time>
      </trkpt>
      <trkpt lat="48.08204" lon="6.86248">
        <ele>844.21</ele>
        <time>2014-01-13T12:11:23Z</time>
      </trkpt>
      <trkpt lat="48.08195" lon="6.86255">
        <ele>842.99</ele>
        <time>2014-01-13T12:11:31Z</time>
      </trkpt>
      <trkpt lat="48.08191" lon="6.86258">
        <ele>842.44</ele>
        <time>2014-01-13T12:11:35Z</time>
      </trkpt>
      <trkpt lat="48.08176" lon="6.86273">
        <ele>839.76</ele>
        <time>2014-01-13T12:11:52Z</time>
      </trkpt>
      <trkpt lat="48.08161" lon="6.86287">
        <ele>837.77</ele>
        <time>2014-01-13T12:12:07Z</time>
      </trkpt>
      <trkpt lat="48.08145" lon="6.86303">
        <ele>835.88</ele>
        <time>2014-01-13T12:12:23Z</time>
      </trkpt>
      <trkpt lat="48.08135" lon="6.86315">
        <ele>834</ele>
        <time>2014-01-13T12:12:35Z</time>
      </trkpt>
      <trkpt lat="48.08121" lon="6.86337">
        <ele>832.62</ele>
        <time>2014-01-13T12:12:52Z</time>
      </trkpt>
      <trkpt lat="48.08113" lon="6.86356">
        <ele>832.06</ele>
        <time>2014-01-13T12:13:06Z</time>
      </trkpt>
      <trkpt lat="48.08104" lon="6.86375">
        <ele>831.47</ele>
        <time>2014-01-13T12:13:21Z</time>
      </trkpt>
      <trkpt lat="48.08092" lon="6.864">
        <ele>830.3</ele>
        <time>2014-01-13T12:13:40Z</time>
      </trkpt>
      <trkpt lat="48.08083" lon="6.86416">
        <ele>828.74</ele>
        <time>2014-01-13T12:13:57Z</time>
      </trkpt>
      <trkpt lat="48.08079" lon="6.86415">
        <ele>828.24</ele>
        <time>2014-01-13T12:14:15Z</time>
      </trkpt>
      <trkpt lat="48.08072" lon="6.86408">
        <ele>826.68</ele>
        <time>2014-01-13T12:14:27Z</time>
      </trkpt>
      <trkpt lat="48.08071" lon="6.86406">
        <ele>826.29</ele>
        <time>2014-01-13T12:14:29Z</time>
      </trkpt>
      <trkpt lat="48.08066" lon="6.86418">
        <ele>823.68</ele>
        <time>2014-01-13T12:14:43Z</time>
      </trkpt>
      <trkpt lat="48.08065" lon="6.86421">
        <ele>823.28</ele>
        <time>2014-01-13T12:14:53Z</time>
      </trkpt>
      <trkpt lat="48.08063" lon="6.86426">
        <ele>823.29</ele>
        <time>2014-01-13T12:14:56Z</time>
      </trkpt>
      <trkpt lat="48.08056" lon="6.86456">
        <ele>821.69</ele>
        <time>2014-01-13T12:15:15Z</time>
      </trkpt>
      <trkpt lat="48.08054" lon="6.86469">
        <ele>820.63</ele>
        <time>2014-01-13T12:15:24Z</time>
      </trkpt>
      <trkpt lat="48.08048" lon="6.86501">
        <ele>818.54</ele>
        <time>2014-01-13T12:15:44Z</time>
      </trkpt>
      <trkpt lat="48.08045" lon="6.86529">
        <ele>816.69</ele>
        <time>2014-01-13T12:16:02Z</time>
      </trkpt>
      <trkpt lat="48.08041" lon="6.86562">
        <ele>814.14</ele>
        <time>2014-01-13T12:16:22Z</time>
      </trkpt>
      <trkpt lat="48.08044" lon="6.86589">
        <ele>812.11</ele>
        <time>2014-01-13T12:16:39Z</time>
      </trkpt>
      <trkpt lat="48.08048" lon="6.86614">
        <ele>810.51</ele>
        <time>2014-01-13T12:16:54Z</time>
      </trkpt>
      <trkpt lat="48.0805" lon="6.86642">
        <ele>808.59</ele>
        <time>2014-01-13T12:17:12Z</time>
      </trkpt>
      <trkpt lat="48.08052" lon="6.86669">
        <ele>806.52</ele>
        <time>2014-01-13T12:17:29Z</time>
      </trkpt>
      <trkpt lat="48.08055" lon="6.86673">
        <ele>806.29</ele>
        <time>2014-01-13T12:17:32Z</time>
      </trkpt>
      <trkpt lat="48.08065" lon="6.86691">
        <ele>807.39</ele>
        <time>2014-01-13T12:17:47Z</time>
      </trkpt>
      <trkpt lat="48.08065" lon="6.86714">
        <ele>807.82</ele>
        <time>2014-01-13T12:18:05Z</time>
      </trkpt>
      <trkpt lat="48.08066" lon="6.86737">
        <ele>807.52</ele>
        <time>2014-01-13T12:18:21Z</time>
      </trkpt>
      <trkpt lat="48.08071" lon="6.86758">
        <ele>807.31</ele>
        <time>2014-01-13T12:18:35Z</time>
      </trkpt>
      <trkpt lat="48.08077" lon="6.86783">
        <ele>806.6</ele>
        <time>2014-01-13T12:18:51Z</time>
      </trkpt>
      <trkpt lat="48.0808" lon="6.86806">
        <ele>805.49</ele>
        <time>2014-01-13T12:19:06Z</time>
      </trkpt>
      <trkpt lat="48.0808" lon="6.86827">
        <ele>804.52</ele>
        <time>2014-01-13T12:19:20Z</time>
      </trkpt>
      <trkpt lat="48.0808" lon="6.86833">
        <ele>804.19</ele>
        <time>2014-01-13T12:19:25Z</time>
      </trkpt>
      <trkpt lat="48.0808" lon="6.86841">
        <ele>804.03</ele>
        <time>2014-01-13T12:19:30Z</time>
      </trkpt>
      <trkpt lat="48.08079" lon="6.86844">
        <ele>803.97</ele>
        <time>2014-01-13T12:19:32Z</time>
      </trkpt>
      <trkpt lat="48.08079" lon="6.86849">
        <ele>803.65</ele>
        <time>2014-01-13T12:19:35Z</time>
      </trkpt>
      <trkpt lat="48.08081" lon="6.86873">
        <ele>802.72</ele>
        <time>2014-01-13T12:19:51Z</time>
      </trkpt>
      <trkpt lat="48.08084" lon="6.86891">
        <ele>801.83</ele>
        <time>2014-01-13T12:20:01Z</time>
      </trkpt>
      <trkpt lat="48.0809" lon="6.8691">
        <ele>800.88</ele>
        <time>2014-01-13T12:20:14Z</time>
      </trkpt>
      <trkpt lat="48.08092" lon="6.86915">
        <ele>800.5</ele>
        <time>2014-01-13T12:20:18Z</time>
      </trkpt>
      <trkpt lat="48.081" lon="6.86942">
        <ele>798.35</ele>
        <time>2014-01-13T12:20:37Z</time>
      </trkpt>
      <trkpt lat="48.08106" lon="6.86964">
        <ele>797.1</ele>
        <time>2014-01-13T12:20:52Z</time>
      </trkpt>
      <trkpt lat="48.08106" lon="6.86994">
        <ele>795.4</ele>
        <time>2014-01-13T12:21:10Z</time>
      </trkpt>
      <trkpt lat="48.08111" lon="6.87023">
        <ele>793.68</ele>
        <time>2014-01-13T12:21:26Z</time>
      </trkpt>
      <trkpt lat="48.08121" lon="6.87046">
        <ele>791.7</ele>
        <time>2014-01-13T12:21:48Z</time>
      </trkpt>
      <trkpt lat="48.08123" lon="6.87067">
        <ele>790.66</ele>
        <time>2014-01-13T12:22:00Z</time>
      </trkpt>
      <trkpt lat="48.08124" lon="6.87073">
        <ele>790.4</ele>
        <time>2014-01-13T12:22:03Z</time>
      </trkpt>
      <trkpt lat="48.08125" lon="6.8708">
        <ele>790.11</ele>
        <time>2014-01-13T12:22:06Z</time>
      </trkpt>
      <trkpt lat="48.08126" lon="6.87086">
        <ele>789.93</ele>
        <time>2014-01-13T12:22:10Z</time>
      </trkpt>
      <trkpt lat="48.08127" lon="6.8709">
        <ele>789.86</ele>
        <time>2014-01-13T12:22:12Z</time>
      </trkpt>
      <trkpt lat="48.0813" lon="6.871">
        <ele>789.56</ele>
        <time>2014-01-13T12:22:17Z</time>
      </trkpt>
      <trkpt lat="48.08142" lon="6.87128">
        <ele>789.41</ele>
        <time>2014-01-13T12:22:34Z</time>
      </trkpt>
      <trkpt lat="48.0815" lon="6.87149">
        <ele>789.4</ele>
        <time>2014-01-13T12:22:46Z</time>
      </trkpt>
      <trkpt lat="48.08153" lon="6.8717">
        <ele>789.15</ele>
        <time>2014-01-13T12:22:57Z</time>
      </trkpt>
      <trkpt lat="48.08158" lon="6.87188">
        <ele>788.62</ele>
        <time>2014-01-13T12:23:08Z</time>
      </trkpt>
      <trkpt lat="48.08168" lon="6.87212">
        <ele>787.73</ele>
        <time>2014-01-13T12:23:23Z</time>
      </trkpt>
      <trkpt lat="48.08177" lon="6.87231">
        <ele>787.31</ele>
        <time>2014-01-13T12:23:37Z</time>
      </trkpt>
      <trkpt lat="48.08184" lon="6.87254">
        <ele>786.93</ele>
        <time>2014-01-13T12:23:52Z</time>
      </trkpt>
      <trkpt lat="48.08194" lon="6.87276">
        <ele>786.11</ele>
        <time>2014-01-13T12:24:06Z</time>
      </trkpt>
      <trkpt lat="48.08197" lon="6.87282">
        <ele>785.72</ele>
        <time>2014-01-13T12:24:10Z</time>
      </trkpt>
      <trkpt lat="48.08205" lon="6.87307">
        <ele>784.43</ele>
        <time>2014-01-13T12:24:25Z</time>
      </trkpt>
      <trkpt lat="48.08214" lon="6.87332">
        <ele>782.68</ele>
        <time>2014-01-13T12:24:41Z</time>
      </trkpt>
      <trkpt lat="48.08223" lon="6.87356">
        <ele>782.02</ele>
        <time>2014-01-13T12:24:55Z</time>
      </trkpt>
      <trkpt lat="48.08234" lon="6.87374">
        <ele>781.34</ele>
        <time>2014-01-13T12:25:10Z</time>
      </trkpt>
      <trkpt lat="48.08244" lon="6.8739">
        <ele>780.42</ele>
        <time>2014-01-13T12:25:23Z</time>
      </trkpt>
      <trkpt lat="48.08245" lon="6.87393">
        <ele>780.35</ele>
        <time>2014-01-13T12:25:25Z</time>
      </trkpt>
      <trkpt lat="48.08259" lon="6.87415">
        <ele>780.01</ele>
        <time>2014-01-13T12:25:42Z</time>
      </trkpt>
      <trkpt lat="48.08266" lon="6.87432">
        <ele>780.38</ele>
        <time>2014-01-13T12:25:59Z</time>
      </trkpt>
      <trkpt lat="48.08268" lon="6.87436">
        <ele>780.35</ele>
        <time>2014-01-13T12:26:02Z</time>
      </trkpt>
      <trkpt lat="48.08269" lon="6.87439">
        <ele>780.31</ele>
        <time>2014-01-13T12:26:04Z</time>
      </trkpt>
      <trkpt lat="48.08274" lon="6.87447">
        <ele>780.16</ele>
        <time>2014-01-13T12:26:10Z</time>
      </trkpt>
      <trkpt lat="48.08277" lon="6.87453">
        <ele>779.92</ele>
        <time>2014-01-13T12:26:14Z</time>
      </trkpt>
      <trkpt lat="48.08278" lon="6.87461">
        <ele>779.69</ele>
        <time>2014-01-13T12:26:18Z</time>
      </trkpt>
      <trkpt lat="48.08289" lon="6.8748">
        <ele>778.76</ele>
        <time>2014-01-13T12:26:33Z</time>
      </trkpt>
      <trkpt lat="48.08299" lon="6.87494">
        <ele>778.03</ele>
        <time>2014-01-13T12:26:44Z</time>
      </trkpt>
      <trkpt lat="48.08301" lon="6.87499">
        <ele>777.9</ele>
        <time>2014-01-13T12:26:47Z</time>
      </trkpt>
      <trkpt lat="48.08308" lon="6.87514">
        <ele>777.66</ele>
        <time>2014-01-13T12:26:58Z</time>
      </trkpt>
      <trkpt lat="48.08319" lon="6.87543">
        <ele>776.95</ele>
        <time>2014-01-13T12:27:16Z</time>
      </trkpt>
      <trkpt lat="48.08324" lon="6.87568">
        <ele>776.28</ele>
        <time>2014-01-13T12:27:32Z</time>
      </trkpt>
      <trkpt lat="48.08325" lon="6.87571">
        <ele>776.2</ele>
        <time>2014-01-13T12:27:34Z</time>
      </trkpt>
      <trkpt lat="48.08326" lon="6.87575">
        <ele>776.08</ele>
        <time>2014-01-13T12:27:36Z</time>
      </trkpt>
      <trkpt lat="48.08337" lon="6.87597">
        <ele>774.85</ele>
        <time>2014-01-13T12:27:52Z</time>
      </trkpt>
      <trkpt lat="48.08349" lon="6.87621">
        <ele>773.31</ele>
        <time>2014-01-13T12:28:08Z</time>
      </trkpt>
      <trkpt lat="48.08358" lon="6.87643">
        <ele>772.34</ele>
        <time>2014-01-13T12:28:23Z</time>
      </trkpt>
      <trkpt lat="48.08369" lon="6.87664">
        <ele>770.72</ele>
        <time>2014-01-13T12:28:40Z</time>
      </trkpt>
      <trkpt lat="48.08376" lon="6.87683">
        <ele>769.13</ele>
        <time>2014-01-13T12:28:53Z</time>
      </trkpt>
      <trkpt lat="48.08378" lon="6.87698">
        <ele>768.65</ele>
        <time>2014-01-13T12:29:02Z</time>
      </trkpt>
      <trkpt lat="48.08385" lon="6.87721">
        <ele>766.93</ele>
        <time>2014-01-13T12:29:19Z</time>
      </trkpt>
      <trkpt lat="48.08389" lon="6.87732">
        <ele>766.62</ele>
        <time>2014-01-13T12:29:28Z</time>
      </trkpt>
      <trkpt lat="48.08397" lon="6.8774">
        <ele>765.85</ele>
        <time>2014-01-13T12:29:40Z</time>
      </trkpt>
      <trkpt lat="48.08397" lon="6.87739">
        <ele>765.08</ele>
        <time>2014-01-13T12:29:56Z</time>
      </trkpt>
    </trkseg>
  </trk>
</gpx>